JST512 YMML-YMML
Flight info
| Callsign | JST512 |
|---|---|
| Flight time | 0h 4m |
| Altitude | 37000 |
| Route | DOSEL2/34 DOSEL Y59 RIVET YMML/34 |
| Aircraft | A320/M-SDE3FGHIRWY/LB1 |
Departure
| Time | 2026-05-01 07:23 |
|---|---|
| Airport | Melbourne Airport (YMML) |
Arrival
| Time | 2026-05-01 07:28 |
|---|---|
| Airport | Melbourne Airport (YMML) |
| Time | Latitude | Longitude | Altitude | Speed | Heading |
|---|---|---|---|---|---|
| 2026-05-01 07:23 | -37.87699 | 144.85984 | 3678 ft | 194 kts | 11° |
| 2026-05-01 07:23 | -37.85047 | 144.86104 | 3122 ft | 192 kts | 356° |
| 2026-05-01 07:24 | -37.83713 | 144.85987 | 3019 ft | 192 kts | 357° |
| 2026-05-01 07:24 | -37.82380 | 144.85893 | 3011 ft | 192 kts | 358° |
| 2026-05-01 07:24 | -37.81039 | 144.85810 | 2848 ft | 194 kts | 0° |
| 2026-05-01 07:24 | -37.79711 | 144.85762 | 2596 ft | 186 kts | 0° |
| 2026-05-01 07:25 | -37.78437 | 144.85724 | 2362 ft | 174 kts | 1° |
| 2026-05-01 07:25 | -37.77275 | 144.85668 | 2141 ft | 160 kts | 359° |
| 2026-05-01 07:25 | -37.76236 | 144.85490 | 1950 ft | 143 kts | 353° |
| 2026-05-01 07:25 | -37.75277 | 144.85232 | 1731 ft | 135 kts | 353° |
| 2026-05-01 07:26 | -37.74365 | 144.85088 | 1462 ft | 133 kts | 356° |
| 2026-05-01 07:26 | -37.73440 | 144.84998 | 1282 ft | 131 kts | 356° |
| 2026-05-01 07:26 | -37.72519 | 144.84829 | 1096 ft | 134 kts | 351° |
| 2026-05-01 07:26 | -37.71615 | 144.84631 | 936 ft | 135 kts | 352° |
| 2026-05-01 07:27 | -37.70694 | 144.84483 | 845 ft | 131 kts | 352° |
| 2026-05-01 07:27 | -37.69780 | 144.84310 | 598 ft | 134 kts | 355° |
| 2026-05-01 07:27 | -37.68846 | 144.84125 | 418 ft | 138 kts | 355° |
| 2026-05-01 07:27 | -37.67937 | 144.83986 | 355 ft | 119 kts | 354° |
| 2026-05-01 07:28 | -37.67330 | 144.83871 | 373 ft | 70 kts | 350° |
| 2026-05-01 07:28 | -37.67040 | 144.83835 | 384 ft | 27 kts | 9° |
| 2026-05-01 07:28 | -37.66887 | 144.83890 | 390 ft | 21 kts | 22° |
| 2026-05-01 07:28 | -37.66815 | 144.83929 | 392 ft | 9 kts | 31° |
| 2026-05-01 07:29 | -37.66815 | 144.83976 | 391 ft | 0 kts | 143° |
| 2026-05-01 07:29 | -37.66827 | 144.83987 | 391 ft | 4 kts | 150° |
| 2026-05-01 07:29 | -37.66862 | 144.83997 | 390 ft | 7 kts | 173° |
| 2026-05-01 07:29 | -37.66923 | 144.84008 | 388 ft | 10 kts | 170° |
| 2026-05-01 07:30 | -37.67004 | 144.84023 | 385 ft | 13 kts | 174° |
| 2026-05-01 07:30 | -37.67105 | 144.84040 | 382 ft | 16 kts | 167° |
| 2026-05-01 07:30 | -37.67195 | 144.84064 | 379 ft | 8 kts | 169° |
| 2026-05-01 07:30 | -37.67229 | 144.84070 | 378 ft | 5 kts | 175° |
| 2026-05-01 07:31 | -37.67271 | 144.84073 | 377 ft | 7 kts | 175° |
| 2026-05-01 07:31 | -37.67487 | 144.84124 | 371 ft | 12 kts | 140° |
| 2026-05-01 07:32 | -37.67526 | 144.84298 | 374 ft | 10 kts | 131° |
| 2026-05-01 07:32 | -37.67552 | 144.84355 | 374 ft | 7 kts | 32° |
| 2026-05-01 07:33 | -37.67477 | 144.84361 | 376 ft | 5 kts | 62° |
| 2026-05-01 07:33 | -37.67473 | 144.84419 | 377 ft | 10 kts | 86° |
| 2026-05-01 07:33 | -37.67534 | 144.84543 | 377 ft | 12 kts | 169° |
| 2026-05-01 07:34 | -37.67620 | 144.84559 | 374 ft | 13 kts | 174° |
| 2026-05-01 07:34 | -37.67768 | 144.84583 | 373 ft | 9 kts | 166° |
| 2026-05-01 07:34 | -37.67842 | 144.84605 | 366 ft | 13 kts | 167° |
| 2026-05-01 07:35 | -37.67947 | 144.84625 | 362 ft | 17 kts | 172° |
| 2026-05-01 07:35 | -37.68077 | 144.84651 | 355 ft | 20 kts | 171° |
| 2026-05-01 07:35 | -37.68196 | 144.84671 | 359 ft | 18 kts | 171° |
| 2026-05-01 07:35 | -37.68305 | 144.84690 | 353 ft | 9 kts | 175° |
| 2026-05-01 07:36 | -37.68368 | 144.84723 | 356 ft | 11 kts | 138° |
| 2026-05-01 07:36 | -37.68409 | 144.84813 | 349 ft | 4 kts | 106° |
| 2026-05-01 07:36 | -37.68409 | 144.84837 | 345 ft | 5 kts | 83° |
| 2026-05-01 07:36 | -37.68414 | 144.84895 | 344 ft | 5 kts | 119° |
| 2026-05-01 07:37 | -37.68489 | 144.84906 | 338 ft | 6 kts | 187° |
| 2026-05-01 07:37 | -37.68531 | 144.84900 | 334 ft | 4 kts | 186° |
| 2026-05-01 07:37 | -37.68552 | 144.84888 | 332 ft | 3 kts | 230° |
| 2026-05-01 07:38 | -37.68554 | 144.84865 | 333 ft | 3 kts | 261° |
| 2026-05-01 07:38 | -37.68555 | 144.84864 | 333 ft | 0 kts | 261° |
| 2026-05-01 07:40 | -37.68554 | 144.84862 | 333 ft | 0 kts | 269° |
| 2026-05-01 07:40 | -37.68550 | 144.84860 | 333 ft | 1 kts | 319° |
| 2026-05-01 07:40 | -37.68545 | 144.84863 | 334 ft | 1 kts | 17° |
| 2026-05-01 07:40 | -37.68507 | 144.84890 | 336 ft | 10 kts | 28° |
| 2026-05-01 07:41 | -37.68459 | 144.84911 | 347 ft | 6 kts | 11° |
| 2026-05-01 07:41 | -37.68424 | 144.84906 | 356 ft | 4 kts | 334° |
| 2026-05-01 07:41 | -37.68392 | 144.84761 | 345 ft | 11 kts | 290° |
| 2026-05-01 07:42 | -37.68343 | 144.84701 | 353 ft | 9 kts | 340° |
| 2026-05-01 07:42 | -37.68283 | 144.84687 | 355 ft | 8 kts | 353° |
| 2026-05-01 07:42 | -37.68210 | 144.84676 | 355 ft | 17 kts | 353° |
| 2026-05-01 07:42 | -37.68063 | 144.84649 | 359 ft | 22 kts | 353° |
| 2026-05-01 07:43 | -37.67920 | 144.84622 | 363 ft | 20 kts | 352° |
| 2026-05-01 07:43 | -37.67801 | 144.84600 | 372 ft | 11 kts | 351° |
| 2026-05-01 07:43 | -37.67737 | 144.84702 | 371 ft | 8 kts | 82° |
| 2026-05-01 07:44 | -37.67719 | 144.84849 | 373 ft | 9 kts | 68° |
| 2026-05-01 07:44 | -37.67632 | 144.84847 | 376 ft | 5 kts | 351° |
| 2026-05-01 07:45 | -37.67618 | 144.84844 | 377 ft | 0 kts | 351° |
| 2026-05-01 07:45 | -37.67617 | 144.84844 | 377 ft | 0 kts | 351° |